sensor_id;sensor_type;location;lat;lon;timestamp;temperature;humidity
44723;DHT22;30451;48.638;10.624;2023-04-03T00:01:15;23.90;44.90
44723;DHT22;30451;48.638;10.624;2023-04-03T00:03:41;23.90;44.90
44723;DHT22;30451;48.638;10.624;2023-04-03T00:06:07;23.90;44.90
44723;DHT22;30451;48.638;10.624;2023-04-03T00:08:35;23.90;45.00
44723;DHT22;30451;48.638;10.624;2023-04-03T00:11:01;23.90;45.50
44723;DHT22;30451;48.638;10.624;2023-04-03T00:13:27;23.80;44.90
44723;DHT22;30451;48.638;10.624;2023-04-03T00:15:53;23.80;45.00
44723;DHT22;30451;48.638;10.624;2023-04-03T00:18:19;23.80;45.50
44723;DHT22;30451;48.638;10.624;2023-04-03T00:20:45;23.80;45.00
44723;DHT22;30451;48.638;10.624;2023-04-03T00:23:10;23.70;45.00
44723;DHT22;30451;48.638;10.624;2023-04-03T00:25:36;23.70;45.00
44723;DHT22;30451;48.638;10.624;2023-04-03T00:28:02;23.70;45.00
44723;DHT22;30451;48.638;10.624;2023-04-03T00:30:28;23.70;45.10
44723;DHT22;30451;48.638;10.624;2023-04-03T00:32:54;23.70;45.00
44723;DHT22;30451;48.638;10.624;2023-04-03T00:35:21;23.60;45.40
44723;DHT22;30451;48.638;10.624;2023-04-03T00:37:47;23.60;45.10
44723;DHT22;30451;48.638;10.624;2023-04-03T00:40:15;23.60;45.10
44723;DHT22;30451;48.638;10.624;2023-04-03T00:42:42;23.60;45.10
44723;DHT22;30451;48.638;10.624;2023-04-03T00:47:38;23.50;45.10
44723;DHT22;30451;48.638;10.624;2023-04-03T00:50:05;23.50;45.20
44723;DHT22;30451;48.638;10.624;2023-04-03T00:52:31;23.50;45.20
44723;DHT22;30451;48.638;10.624;2023-04-03T00:55:01;23.50;45.20
44723;DHT22;30451;48.638;10.624;2023-04-03T00:57:29;23.40;45.20
44723;DHT22;30451;48.638;10.624;2023-04-03T01:00:01;23.40;45.20
44723;DHT22;30451;48.638;10.624;2023-04-03T01:02:28;23.40;45.20
44723;DHT22;30451;48.638;10.624;2023-04-03T01:04:54;23.40;45.20
44723;DHT22;30451;48.638;10.624;2023-04-03T01:07:22;23.40;45.20
44723;DHT22;30451;48.638;10.624;2023-04-03T01:09:49;23.40;45.80
44723;DHT22;30451;48.638;10.624;2023-04-03T01:12:37;23.30;45.20
44723;DHT22;30451;48.638;10.624;2023-04-03T01:15:13;23.30;45.20
44723;DHT22;30451;48.638;10.624;2023-04-03T01:17:42;23.30;45.20
44723;DHT22;30451;48.638;10.624;2023-04-03T01:25:42;23.20;45.30
44723;DHT22;30451;48.638;10.624;2023-04-03T01:28:20;23.20;45.30
44723;DHT22;30451;48.638;10.624;2023-04-03T01:33:30;23.20;45.30
44723;DHT22;30451;48.638;10.624;2023-04-03T01:35:56;23.20;45.40
44723;DHT22;30451;48.638;10.624;2023-04-03T01:38:22;23.10;45.30
44723;DHT22;30451;48.638;10.624;2023-04-03T01:40:48;23.10;45.30
44723;DHT22;30451;48.638;10.624;2023-04-03T01:43:13;23.10;45.30
44723;DHT22;30451;48.638;10.624;2023-04-03T01:45:39;23.10;45.40
44723;DHT22;30451;48.638;10.624;2023-04-03T01:48:05;23.10;45.40
44723;DHT22;30451;48.638;10.624;2023-04-03T01:50:30;23.00;45.30
44723;DHT22;30451;48.638;10.624;2023-04-03T01:52:56;23.00;45.40
44723;DHT22;30451;48.638;10.624;2023-04-03T01:55:22;23.00;45.30
44723;DHT22;30451;48.638;10.624;2023-04-03T01:57:47;23.00;45.40
44723;DHT22;30451;48.638;10.624;2023-04-03T02:00:13;23.00;45.40
44723;DHT22;30451;48.638;10.624;2023-04-03T02:02:39;23.00;45.40
44723;DHT22;30451;48.638;10.624;2023-04-03T02:05:06;23.00;45.40
44723;DHT22;30451;48.638;10.624;2023-04-03T02:07:31;22.90;45.40
44723;DHT22;30451;48.638;10.624;2023-04-03T02:09:57;22.90;45.40
44723;DHT22;30451;48.638;10.624;2023-04-03T02:12:23;22.90;45.40
44723;DHT22;30451;48.638;10.624;2023-04-03T02:14:48;22.90;45.40
44723;DHT22;30451;48.638;10.624;2023-04-03T02:17:14;22.90;45.40
44723;DHT22;30451;48.638;10.624;2023-04-03T02:19:40;22.90;45.40
44723;DHT22;30451;48.638;10.624;2023-04-03T02:22:06;22.90;45.50
44723;DHT22;30451;48.638;10.624;2023-04-03T02:24:32;22.80;45.40
44723;DHT22;30451;48.638;10.624;2023-04-03T02:26:58;22.80;45.40
44723;DHT22;30451;48.638;10.624;2023-04-03T02:29:24;22.80;45.40
44723;DHT22;30451;48.638;10.624;2023-04-03T02:31:50;22.80;45.40
44723;DHT22;30451;48.638;10.624;2023-04-03T02:34:16;22.80;45.50
44723;DHT22;30451;48.638;10.624;2023-04-03T02:36:41;22.80;45.50
44723;DHT22;30451;48.638;10.624;2023-04-03T02:39:07;22.70;45.40
44723;DHT22;30451;48.638;10.624;2023-04-03T02:41:33;22.70;45.50
44723;DHT22;30451;48.638;10.624;2023-04-03T02:44:05;22.70;45.50
44723;DHT22;30451;48.638;10.624;2023-04-03T02:46:31;22.70;45.50
44723;DHT22;30451;48.638;10.624;2023-04-03T02:48:57;22.70;45.50
44723;DHT22;30451;48.638;10.624;2023-04-03T02:51:23;22.70;45.50
44723;DHT22;30451;48.638;10.624;2023-04-03T02:53:49;22.70;45.50
44723;DHT22;30451;48.638;10.624;2023-04-03T02:56:16;22.60;45.50
44723;DHT22;30451;48.638;10.624;2023-04-03T02:58:42;22.60;45.50
44723;DHT22;30451;48.638;10.624;2023-04-03T03:01:08;22.60;45.50
44723;DHT22;30451;48.638;10.624;2023-04-03T03:03:34;22.60;45.60
44723;DHT22;30451;48.638;10.624;2023-04-03T03:06:08;22.60;45.50
44723;DHT22;30451;48.638;10.624;2023-04-03T03:08:35;22.60;45.60
44723;DHT22;30451;48.638;10.624;2023-04-03T03:11:02;22.60;45.50
44723;DHT22;30451;48.638;10.624;2023-04-03T03:13:27;22.60;45.50
44723;DHT22;30451;48.638;10.624;2023-04-03T03:15:53;22.60;45.60
44723;DHT22;30451;48.638;10.624;2023-04-03T03:18:19;22.50;45.50
44723;DHT22;30451;48.638;10.624;2023-04-03T03:20:45;22.50;45.50
44723;DHT22;30451;48.638;10.624;2023-04-03T03:23:10;22.50;45.60
44723;DHT22;30451;48.638;10.624;2023-04-03T03:25:40;22.50;45.60
44723;DHT22;30451;48.638;10.624;2023-04-03T03:28:06;22.50;45.60
44723;DHT22;30451;48.638;10.624;2023-04-03T03:30:32;22.50;45.60
44723;DHT22;30451;48.638;10.624;2023-04-03T03:32:57;22.50;45.60
44723;DHT22;30451;48.638;10.624;2023-04-03T03:35:23;22.50;45.60
44723;DHT22;30451;48.638;10.624;2023-04-03T03:37:49;22.40;45.60
44723;DHT22;30451;48.638;10.624;2023-04-03T03:40:14;22.50;45.70
44723;DHT22;30451;48.638;10.624;2023-04-03T03:42:40;22.50;45.70
44723;DHT22;30451;48.638;10.624;2023-04-03T03:45:07;22.40;45.60
44723;DHT22;30451;48.638;10.624;2023-04-03T03:47:33;22.40;46.20
44723;DHT22;30451;48.638;10.624;2023-04-03T03:49:58;22.40;45.60
44723;DHT22;30451;48.638;10.624;2023-04-03T03:52:24;22.40;45.70
44723;DHT22;30451;48.638;10.624;2023-04-03T03:54:50;22.40;45.70
44723;DHT22;30451;48.638;10.624;2023-04-03T03:57:16;22.30;45.60
44723;DHT22;30451;48.638;10.624;2023-04-03T03:59:42;22.30;45.60
44723;DHT22;30451;48.638;10.624;2023-04-03T04:02:09;22.30;45.70
44723;DHT22;30451;48.638;10.624;2023-04-03T04:04:35;22.30;45.70
44723;DHT22;30451;48.638;10.624;2023-04-03T04:07:01;22.30;45.70
44723;DHT22;30451;48.638;10.624;2023-04-03T04:09:27;22.30;45.70
44723;DHT22;30451;48.638;10.624;2023-04-03T04:11:53;22.30;45.70
44723;DHT22;30451;48.638;10.624;2023-04-03T04:14:19;22.30;45.70
44723;DHT22;30451;48.638;10.624;2023-04-03T04:16:47;22.30;45.70
44723;DHT22;30451;48.638;10.624;2023-04-03T04:19:13;22.30;46.30
44723;DHT22;30451;48.638;10.624;2023-04-03T04:21:38;22.30;45.70
44723;DHT22;30451;48.638;10.624;2023-04-03T04:24:05;22.30;45.80
44723;DHT22;30451;48.638;10.624;2023-04-03T04:26:31;22.20;45.70
44723;DHT22;30451;48.638;10.624;2023-04-03T04:28:56;22.20;45.70
44723;DHT22;30451;48.638;10.624;2023-04-03T04:31:22;22.20;45.80
44723;DHT22;30451;48.638;10.624;2023-04-03T04:33:48;22.20;45.80
44723;DHT22;30451;48.638;10.624;2023-04-03T04:36:13;22.20;45.80
44723;DHT22;30451;48.638;10.624;2023-04-03T04:38:41;22.20;45.80
44723;DHT22;30451;48.638;10.624;2023-04-03T04:41:07;22.20;45.80
44723;DHT22;30451;48.638;10.624;2023-04-03T04:43:33;22.20;45.80
44723;DHT22;30451;48.638;10.624;2023-04-03T04:46:09;22.20;45.80
44723;DHT22;30451;48.638;10.624;2023-04-03T04:48:36;22.20;45.80
44723;DHT22;30451;48.638;10.624;2023-04-03T04:51:02;22.20;45.80
44723;DHT22;30451;48.638;10.624;2023-04-03T04:53:28;22.10;45.80
44723;DHT22;30451;48.638;10.624;2023-04-03T04:55:54;22.20;45.80
44723;DHT22;30451;48.638;10.624;2023-04-03T04:58:20;22.10;45.80
44723;DHT22;30451;48.638;10.624;2023-04-03T05:00:46;22.10;45.80
44723;DHT22;30451;48.638;10.624;2023-04-03T05:03:11;22.10;45.80
44723;DHT22;30451;48.638;10.624;2023-04-03T05:05:37;22.10;45.80
44723;DHT22;30451;48.638;10.624;2023-04-03T05:08:04;22.10;45.80
44723;DHT22;30451;48.638;10.624;2023-04-03T05:10:30;22.10;45.90
44723;DHT22;30451;48.638;10.624;2023-04-03T05:12:56;22.10;45.80
44723;DHT22;30451;48.638;10.624;2023-04-03T05:15:22;22.10;45.80
44723;DHT22;30451;48.638;10.624;2023-04-03T05:17:48;22.10;45.90
44723;DHT22;30451;48.638;10.624;2023-04-03T05:20:13;22.10;45.90
44723;DHT22;30451;48.638;10.624;2023-04-03T05:22:39;22.10;45.90
44723;DHT22;30451;48.638;10.624;2023-04-03T05:25:05;22.10;45.90
44723;DHT22;30451;48.638;10.624;2023-04-03T05:27:32;22.10;45.90
44723;DHT22;30451;48.638;10.624;2023-04-03T05:29:57;22.10;46.40
44723;DHT22;30451;48.638;10.624;2023-04-03T05:32:24;22.00;45.80
44723;DHT22;30451;48.638;10.624;2023-04-03T05:34:51;22.10;45.90
44723;DHT22;30451;48.638;10.624;2023-04-03T05:37:17;22.10;45.90
44723;DHT22;30451;48.638;10.624;2023-04-03T05:39:43;22.10;45.90
44723;DHT22;30451;48.638;10.624;2023-04-03T05:42:08;22.00;45.90
44723;DHT22;30451;48.638;10.624;2023-04-03T05:44:34;22.00;45.90
44723;DHT22;30451;48.638;10.624;2023-04-03T05:47:00;22.00;45.90
44723;DHT22;30451;48.638;10.624;2023-04-03T05:49:26;22.00;45.90
44723;DHT22;30451;48.638;10.624;2023-04-03T05:51:51;22.00;45.90
44723;DHT22;30451;48.638;10.624;2023-04-03T05:54:26;22.00;45.90
44723;DHT22;30451;48.638;10.624;2023-04-03T05:56:52;22.00;45.90
44723;DHT22;30451;48.638;10.624;2023-04-03T05:59:19;22.00;45.90
44723;DHT22;30451;48.638;10.624;2023-04-03T06:01:45;22.00;45.90
44723;DHT22;30451;48.638;10.624;2023-04-03T06:04:11;22.00;45.90
44723;DHT22;30451;48.638;10.624;2023-04-03T06:06:54;22.00;45.90
44723;DHT22;30451;48.638;10.624;2023-04-03T06:09:23;22.00;45.80
44723;DHT22;30451;48.638;10.624;2023-04-03T06:11:49;22.00;45.90
44723;DHT22;30451;48.638;10.624;2023-04-03T06:14:15;22.00;45.90
44723;DHT22;30451;48.638;10.624;2023-04-03T06:16:41;21.90;45.80
44723;DHT22;30451;48.638;10.624;2023-04-03T06:19:09;21.90;45.80
44723;DHT22;30451;48.638;10.624;2023-04-03T06:21:35;21.90;45.90
44723;DHT22;30451;48.638;10.624;2023-04-03T06:24:02;21.90;45.80
44723;DHT22;30451;48.638;10.624;2023-04-03T06:26:28;21.90;45.80
44723;DHT22;30451;48.638;10.624;2023-04-03T06:28:54;21.90;45.80
44723;DHT22;30451;48.638;10.624;2023-04-03T06:31:20;21.90;45.80
44723;DHT22;30451;48.638;10.624;2023-04-03T06:33:45;21.90;45.90
44723;DHT22;30451;48.638;10.624;2023-04-03T06:36:11;21.90;45.90
44723;DHT22;30451;48.638;10.624;2023-04-03T06:38:38;21.90;45.80
44723;DHT22;30451;48.638;10.624;2023-04-03T06:41:04;21.80;45.80
44723;DHT22;30451;48.638;10.624;2023-04-03T06:43:29;21.90;45.90
44723;DHT22;30451;48.638;10.624;2023-04-03T06:45:56;21.80;45.80
44723;DHT22;30451;48.638;10.624;2023-04-03T06:48:22;21.80;45.80
44723;DHT22;30451;48.638;10.624;2023-04-03T06:50:48;21.80;45.80
44723;DHT22;30451;48.638;10.624;2023-04-03T06:53:14;21.90;45.80
44723;DHT22;30451;48.638;10.624;2023-04-03T06:55:40;21.80;45.80
44723;DHT22;30451;48.638;10.624;2023-04-03T06:58:06;21.80;45.80
44723;DHT22;30451;48.638;10.624;2023-04-03T07:00:33;21.80;45.80
44723;DHT22;30451;48.638;10.624;2023-04-03T07:02:59;21.80;45.80
44723;DHT22;30451;48.638;10.624;2023-04-03T07:05:25;21.80;45.80
44723;DHT22;30451;48.638;10.624;2023-04-03T07:07:52;21.80;45.80
44723;DHT22;30451;48.638;10.624;2023-04-03T07:10:17;21.80;45.80
44723;DHT22;30451;48.638;10.624;2023-04-03T07:12:43;21.80;45.70
44723;DHT22;30451;48.638;10.624;2023-04-03T07:15:09;21.80;45.80
44723;DHT22;30451;48.638;10.624;2023-04-03T07:17:35;21.80;45.80
44723;DHT22;30451;48.638;10.624;2023-04-03T07:20:02;21.80;45.80
44723;DHT22;30451;48.638;10.624;2023-04-03T07:22:29;21.70;45.80
44723;DHT22;30451;48.638;10.624;2023-04-03T07:24:55;21.70;45.80
44723;DHT22;30451;48.638;10.624;2023-04-03T07:27:20;21.80;45.80
44723;DHT22;30451;48.638;10.624;2023-04-03T07:29:46;21.70;45.80
44723;DHT22;30451;48.638;10.624;2023-04-03T07:32:14;21.80;45.90
44723;DHT22;30451;48.638;10.624;2023-04-03T07:34:40;21.70;45.80
44723;DHT22;30451;48.638;10.624;2023-04-03T07:37:06;21.80;45.90
44723;DHT22;30451;48.638;10.624;2023-04-03T07:39:32;21.70;45.80
44723;DHT22;30451;48.638;10.624;2023-04-03T07:41:58;21.70;45.80
44723;DHT22;30451;48.638;10.624;2023-04-03T07:44:24;21.70;45.80
44723;DHT22;30451;48.638;10.624;2023-04-03T07:46:50;21.70;45.80
44723;DHT22;30451;48.638;10.624;2023-04-03T07:49:17;21.70;45.80
44723;DHT22;30451;48.638;10.624;2023-04-03T07:51:44;21.70;45.80
44723;DHT22;30451;48.638;10.624;2023-04-03T07:54:10;21.70;45.70
44723;DHT22;30451;48.638;10.624;2023-04-03T07:56:36;21.70;45.80
44723;DHT22;30451;48.638;10.624;2023-04-03T07:59:02;21.70;45.80
44723;DHT22;30451;48.638;10.624;2023-04-03T08:01:28;21.70;45.70
44723;DHT22;30451;48.638;10.624;2023-04-03T08:03:54;21.70;45.70
44723;DHT22;30451;48.638;10.624;2023-04-03T08:06:19;21.70;45.80
44723;DHT22;30451;48.638;10.624;2023-04-03T08:08:45;21.70;45.70
44723;DHT22;30451;48.638;10.624;2023-04-03T08:11:11;21.70;45.70
44723;DHT22;30451;48.638;10.624;2023-04-03T08:13:37;21.60;45.70
44723;DHT22;30451;48.638;10.624;2023-04-03T08:16:12;21.60;45.70
44723;DHT22;30451;48.638;10.624;2023-04-03T08:18:38;21.70;45.70
44723;DHT22;30451;48.638;10.624;2023-04-03T08:21:12;21.70;45.70
44723;DHT22;30451;48.638;10.624;2023-04-03T08:23:38;21.60;45.60
44723;DHT22;30451;48.638;10.624;2023-04-03T08:26:15;21.70;45.70
44723;DHT22;30451;48.638;10.624;2023-04-03T08:28:41;21.60;45.60
44723;DHT22;30451;48.638;10.624;2023-04-03T08:31:11;21.60;45.60
44723;DHT22;30451;48.638;10.624;2023-04-03T08:33:38;21.60;45.60
44723;DHT22;30451;48.638;10.624;2023-04-03T08:36:06;21.60;45.60
44723;DHT22;30451;48.638;10.624;2023-04-03T08:38:33;21.60;45.60
44723;DHT22;30451;48.638;10.624;2023-04-03T08:41:07;21.60;45.60
44723;DHT22;30451;48.638;10.624;2023-04-03T08:44:03;21.60;45.70
44723;DHT22;30451;48.638;10.624;2023-04-03T08:50:02;21.60;45.60
44723;DHT22;30451;48.638;10.624;2023-04-03T08:52:42;21.60;45.60
44723;DHT22;30451;48.638;10.624;2023-04-03T08:55:33;21.60;45.60
44723;DHT22;30451;48.638;10.624;2023-04-03T09:00:53;21.60;45.60
44723;DHT22;30451;48.638;10.624;2023-04-03T09:03:18;21.60;45.50
44723;DHT22;30451;48.638;10.624;2023-04-03T09:05:55;21.60;45.60
44723;DHT22;30451;48.638;10.624;2023-04-03T09:08:26;21.50;45.50
44723;DHT22;30451;48.638;10.624;2023-04-03T09:11:06;21.60;45.50
44723;DHT22;30451;48.638;10.624;2023-04-03T09:13:49;21.50;45.50
44723;DHT22;30451;48.638;10.624;2023-04-03T09:17:04;21.50;45.40
44723;DHT22;30451;48.638;10.624;2023-04-03T09:22:17;21.50;45.50
44723;DHT22;30451;48.638;10.624;2023-04-03T09:24:52;21.50;45.70
44723;DHT22;30451;48.638;10.624;2023-04-03T09:27:21;21.60;46.10
44723;DHT22;30451;48.638;10.624;2023-04-03T09:29:47;21.60;45.60
44723;DHT22;30451;48.638;10.624;2023-04-03T09:34:51;21.70;45.60
44723;DHT22;30451;48.638;10.624;2023-04-03T09:40:03;21.70;45.50
44723;DHT22;30451;48.638;10.624;2023-04-03T09:42:30;21.70;45.60
44723;DHT22;30451;48.638;10.624;2023-04-03T09:47:29;21.80;45.50
44723;DHT22;30451;48.638;10.624;2023-04-03T09:52:51;21.90;45.50
44723;DHT22;30451;48.638;10.624;2023-04-03T09:55:24;21.80;45.50
44723;DHT22;30451;48.638;10.624;2023-04-03T09:58:00;21.80;45.40
44723;DHT22;30451;48.638;10.624;2023-04-03T10:00:35;21.90;45.90
44723;DHT22;30451;48.638;10.624;2023-04-03T10:03:02;21.90;45.30
44723;DHT22;30451;48.638;10.624;2023-04-03T10:05:41;21.90;45.70
44723;DHT22;30451;48.638;10.624;2023-04-03T10:11:04;21.90;45.10
44723;DHT22;30451;48.638;10.624;2023-04-03T10:13:30;22.00;45.10
44723;DHT22;30451;48.638;10.624;2023-04-03T10:16:03;22.00;45.60
44723;DHT22;30451;48.638;10.624;2023-04-03T10:21:39;22.00;45.10
44723;DHT22;30451;48.638;10.624;2023-04-03T10:24:21;22.00;45.00
44723;DHT22;30451;48.638;10.624;2023-04-03T10:29:36;22.00;45.20
44723;DHT22;30451;48.638;10.624;2023-04-03T10:34:45;22.10;45.40
44723;DHT22;30451;48.638;10.624;2023-04-03T10:42:50;22.10;45.30
44723;DHT22;30451;48.638;10.624;2023-04-03T10:45:53;22.20;45.40
44723;DHT22;30451;48.638;10.624;2023-04-03T10:51:12;22.20;45.30
44723;DHT22;30451;48.638;10.624;2023-04-03T10:57:03;22.30;45.30
44723;DHT22;30451;48.638;10.624;2023-04-03T10:59:35;22.30;45.20
44723;DHT22;30451;48.638;10.624;2023-04-03T11:05:21;22.40;45.10
44723;DHT22;30451;48.638;10.624;2023-04-03T11:07:53;22.40;45.10
44723;DHT22;30451;48.638;10.624;2023-04-03T11:10:26;22.40;45.10
44723;DHT22;30451;48.638;10.624;2023-04-03T11:13:04;22.50;45.10
44723;DHT22;30451;48.638;10.624;2023-04-03T11:15:32;22.50;45.00
44723;DHT22;30451;48.638;10.624;2023-04-03T11:18:04;22.50;45.00
44723;DHT22;30451;48.638;10.624;2023-04-03T11:20:32;22.50;44.90
44723;DHT22;30451;48.638;10.624;2023-04-03T11:23:25;22.50;45.40
44723;DHT22;30451;48.638;10.624;2023-04-03T11:25:59;22.60;44.90
44723;DHT22;30451;48.638;10.624;2023-04-03T11:28:27;22.60;44.80
44723;DHT22;30451;48.638;10.624;2023-04-03T11:31:06;22.70;44.80
44723;DHT22;30451;48.638;10.624;2023-04-03T11:36:12;22.70;44.70
44723;DHT22;30451;48.638;10.624;2023-04-03T11:38:43;22.70;44.60
44723;DHT22;30451;48.638;10.624;2023-04-03T11:41:11;22.70;44.60
44723;DHT22;30451;48.638;10.624;2023-04-03T11:43:42;22.70;44.50
44723;DHT22;30451;48.638;10.624;2023-04-03T11:46:20;22.80;44.50
44723;DHT22;30451;48.638;10.624;2023-04-03T11:48:49;22.80;44.50
44723;DHT22;30451;48.638;10.624;2023-04-03T11:53:46;22.80;44.40
44723;DHT22;30451;48.638;10.624;2023-04-03T12:02:21;22.90;44.40
44723;DHT22;30451;48.638;10.624;2023-04-03T12:05:44;22.90;44.30
44723;DHT22;30451;48.638;10.624;2023-04-03T12:13:43;23.00;44.20
44723;DHT22;30451;48.638;10.624;2023-04-03T12:37:48;23.20;44.20
44723;DHT22;30451;48.638;10.624;2023-04-03T12:48:26;23.30;44.10
44723;DHT22;30451;48.638;10.624;2023-04-03T12:50:52;23.30;44.10
44723;DHT22;30451;48.638;10.624;2023-04-03T12:53:27;23.30;44.10
44723;DHT22;30451;48.638;10.624;2023-04-03T12:55:56;23.30;44.00
44723;DHT22;30451;48.638;10.624;2023-04-03T12:58:24;23.40;44.00
44723;DHT22;30451;48.638;10.624;2023-04-03T13:03:34;23.40;43.90
44723;DHT22;30451;48.638;10.624;2023-04-03T13:06:02;23.40;43.90
44723;DHT22;30451;48.638;10.624;2023-04-03T13:08:29;23.40;43.80
44723;DHT22;30451;48.638;10.624;2023-04-03T13:11:22;23.40;43.80
44723;DHT22;30451;48.638;10.624;2023-04-03T13:14:03;23.40;43.70
44723;DHT22;30451;48.638;10.624;2023-04-03T13:16:31;23.40;43.60
44723;DHT22;30451;48.638;10.624;2023-04-03T13:18:57;23.40;43.60
44723;DHT22;30451;48.638;10.624;2023-04-03T13:21:27;23.50;43.80
44723;DHT22;30451;48.638;10.624;2023-04-03T13:23:58;23.50;43.80
44723;DHT22;30451;48.638;10.624;2023-04-03T13:26:26;23.50;43.90
44723;DHT22;30451;48.638;10.624;2023-04-03T13:28:56;23.50;43.80
44723;DHT22;30451;48.638;10.624;2023-04-03T13:31:27;23.50;43.80
44723;DHT22;30451;48.638;10.624;2023-04-03T13:34:12;23.50;44.30
44723;DHT22;30451;48.638;10.624;2023-04-03T13:36:39;23.50;43.60
44723;DHT22;30451;48.638;10.624;2023-04-03T13:41:43;23.50;43.60
44723;DHT22;30451;48.638;10.624;2023-04-03T13:46:48;23.50;43.60
44723;DHT22;30451;48.638;10.624;2023-04-03T13:49:21;23.40;43.50
44723;DHT22;30451;48.638;10.624;2023-04-03T13:51:47;23.50;43.60
44723;DHT22;30451;48.638;10.624;2023-04-03T13:54:21;23.40;43.50
44723;DHT22;30451;48.638;10.624;2023-04-03T13:56:53;23.40;43.50
44723;DHT22;30451;48.638;10.624;2023-04-03T13:59:29;23.40;43.60
44723;DHT22;30451;48.638;10.624;2023-04-03T14:04:32;23.40;43.60
44723;DHT22;30451;48.638;10.624;2023-04-03T14:06:59;23.30;43.50
44723;DHT22;30451;48.638;10.624;2023-04-03T14:09:27;23.40;43.50
44723;DHT22;30451;48.638;10.624;2023-04-03T14:12:00;23.30;43.50
44723;DHT22;30451;48.638;10.624;2023-04-03T14:14:32;23.30;43.50
44723;DHT22;30451;48.638;10.624;2023-04-03T14:17:00;23.30;43.50
44723;DHT22;30451;48.638;10.624;2023-04-03T14:19:36;23.30;44.10
44723;DHT22;30451;48.638;10.624;2023-04-03T14:22:32;23.30;43.60
44723;DHT22;30451;48.638;10.624;2023-04-03T14:24:58;23.40;43.50
44723;DHT22;30451;48.638;10.624;2023-04-03T14:27:37;23.50;43.50
44723;DHT22;30451;48.638;10.624;2023-04-03T14:30:04;23.50;43.40
44723;DHT22;30451;48.638;10.624;2023-04-03T14:32:31;23.60;43.30
44723;DHT22;30451;48.638;10.624;2023-04-03T14:34:57;23.70;43.10
44723;DHT22;30451;48.638;10.624;2023-04-03T14:37:26;23.70;43.00
44723;DHT22;30451;48.638;10.624;2023-04-03T14:39:53;23.70;43.00
44723;DHT22;30451;48.638;10.624;2023-04-03T14:42:23;23.70;42.90
44723;DHT22;30451;48.638;10.624;2023-04-03T14:44:49;23.80;43.00
44723;DHT22;30451;48.638;10.624;2023-04-03T14:47:18;23.80;43.00
44723;DHT22;30451;48.638;10.624;2023-04-03T14:49:46;23.90;42.90
44723;DHT22;30451;48.638;10.624;2023-04-03T14:52:24;23.90;42.70
44723;DHT22;30451;48.638;10.624;2023-04-03T14:54:50;23.90;42.60
44723;DHT22;30451;48.638;10.624;2023-04-03T14:57:16;23.90;42.60
44723;DHT22;30451;48.638;10.624;2023-04-03T14:59:44;24.00;42.70
44723;DHT22;30451;48.638;10.624;2023-04-03T15:02:31;24.00;42.70
44723;DHT22;30451;48.638;10.624;2023-04-03T15:04:58;24.10;42.70
44723;DHT22;30451;48.638;10.624;2023-04-03T15:07:27;24.20;42.50
44723;DHT22;30451;48.638;10.624;2023-04-03T15:09:54;24.30;42.30
44723;DHT22;30451;48.638;10.624;2023-04-03T15:12:23;24.30;42.10
44723;DHT22;30451;48.638;10.624;2023-04-03T15:14:48;24.30;42.10
44723;DHT22;30451;48.638;10.624;2023-04-03T15:17:20;24.30;42.00
44723;DHT22;30451;48.638;10.624;2023-04-03T15:19:46;24.40;42.20
44723;DHT22;30451;48.638;10.624;2023-04-03T15:22:17;24.40;42.10
44723;DHT22;30451;48.638;10.624;2023-04-03T15:24:43;24.50;41.90
44723;DHT22;30451;48.638;10.624;2023-04-03T15:27:10;24.50;41.80
44723;DHT22;30451;48.638;10.624;2023-04-03T15:29:37;24.50;42.20
44723;DHT22;30451;48.638;10.624;2023-04-03T15:32:03;24.60;41.60
44723;DHT22;30451;48.638;10.624;2023-04-03T15:34:29;24.60;41.60
44723;DHT22;30451;48.638;10.624;2023-04-03T15:36:55;24.60;41.70
44723;DHT22;30451;48.638;10.624;2023-04-03T15:39:21;24.70;41.60
44723;DHT22;30451;48.638;10.624;2023-04-03T15:41:48;24.70;41.50
44723;DHT22;30451;48.638;10.624;2023-04-03T15:44:14;24.70;41.50
44723;DHT22;30451;48.638;10.624;2023-04-03T15:46:43;24.80;41.30
44723;DHT22;30451;48.638;10.624;2023-04-03T15:49:09;24.80;41.20
44723;DHT22;30451;48.638;10.624;2023-04-03T15:51:35;24.80;41.10
44723;DHT22;30451;48.638;10.624;2023-04-03T15:54:01;24.80;41.10
44723;DHT22;30451;48.638;10.624;2023-04-03T15:56:27;24.80;41.30
44723;DHT22;30451;48.638;10.624;2023-04-03T15:58:52;24.90;41.40
44723;DHT22;30451;48.638;10.624;2023-04-03T16:01:18;24.90;41.10
44723;DHT22;30451;48.638;10.624;2023-04-03T16:03:44;24.90;41.00
44723;DHT22;30451;48.638;10.624;2023-04-03T16:06:14;25.00;41.00
44723;DHT22;30451;48.638;10.624;2023-04-03T16:08:41;24.90;41.00
44723;DHT22;30451;48.638;10.624;2023-04-03T16:11:07;25.00;41.00
44723;DHT22;30451;48.638;10.624;2023-04-03T16:13:33;25.00;41.10
44723;DHT22;30451;48.638;10.624;2023-04-03T16:16:00;25.00;41.10
44723;DHT22;30451;48.638;10.624;2023-04-03T16:18:27;25.10;41.00
44723;DHT22;30451;48.638;10.624;2023-04-03T16:20:54;25.10;40.90
44723;DHT22;30451;48.638;10.624;2023-04-03T16:23:20;25.20;40.90
44723;DHT22;30451;48.638;10.624;2023-04-03T16:25:46;25.20;40.70
44723;DHT22;30451;48.638;10.624;2023-04-03T16:28:13;25.30;40.70
44723;DHT22;30451;48.638;10.624;2023-04-03T16:30:40;25.30;40.60
44723;DHT22;30451;48.638;10.624;2023-04-03T16:33:06;25.30;40.50
44723;DHT22;30451;48.638;10.624;2023-04-03T16:35:32;25.30;40.60
44723;DHT22;30451;48.638;10.624;2023-04-03T16:37:57;25.30;40.80
44723;DHT22;30451;48.638;10.624;2023-04-03T16:40:23;25.30;41.00
44723;DHT22;30451;48.638;10.624;2023-04-03T16:42:49;25.30;41.10
44723;DHT22;30451;48.638;10.624;2023-04-03T16:45:14;25.40;41.00
44723;DHT22;30451;48.638;10.624;2023-04-03T16:47:40;25.40;40.70
44723;DHT22;30451;48.638;10.624;2023-04-03T16:50:06;25.40;40.60
44723;DHT22;30451;48.638;10.624;2023-04-03T16:52:32;25.40;40.50
44723;DHT22;30451;48.638;10.624;2023-04-03T16:54:58;25.40;40.40
44723;DHT22;30451;48.638;10.624;2023-04-03T16:57:24;25.30;40.40
44723;DHT22;30451;48.638;10.624;2023-04-03T16:59:50;25.30;40.40
44723;DHT22;30451;48.638;10.624;2023-04-03T17:02:17;25.20;40.40
44723;DHT22;30451;48.638;10.624;2023-04-03T17:04:42;25.20;40.40
44723;DHT22;30451;48.638;10.624;2023-04-03T17:07:08;25.20;40.50
44723;DHT22;30451;48.638;10.624;2023-04-03T17:09:34;25.10;40.50
44723;DHT22;30451;48.638;10.624;2023-04-03T17:11:59;25.10;40.50
44723;DHT22;30451;48.638;10.624;2023-04-03T17:14:25;25.10;41.00
44723;DHT22;30451;48.638;10.624;2023-04-03T17:16:51;25.00;40.80